sensor_id;sensor_type;location;lat;lon;timestamp;temperature;humidity
3348;DHT22;1687;49.540;8.574;2024-03-23T00:54:22;13.20;69.50
3348;DHT22;1687;49.540;8.574;2024-03-23T00:56:47;13.20;69.60
3348;DHT22;1687;49.540;8.574;2024-03-23T00:59:13;13.20;69.70
3348;DHT22;1687;49.540;8.574;2024-03-23T01:01:39;13.20;69.70
3348;DHT22;1687;49.540;8.574;2024-03-23T01:04:05;13.10;69.70
3348;DHT22;1687;49.540;8.574;2024-03-23T01:06:30;13.20;69.90
3348;DHT22;1687;49.540;8.574;2024-03-23T01:08:56;13.20;69.90
3348;DHT22;1687;49.540;8.574;2024-03-23T01:11:22;13.10;69.90
3348;DHT22;1687;49.540;8.574;2024-03-23T01:13:47;13.10;70.00
3348;DHT22;1687;49.540;8.574;2024-03-23T01:16:13;13.10;69.90
3348;DHT22;1687;49.540;8.574;2024-03-23T01:18:39;13.00;70.00
3348;DHT22;1687;49.540;8.574;2024-03-23T01:21:04;13.00;70.20
3348;DHT22;1687;49.540;8.574;2024-03-23T01:23:30;13.10;70.60
3348;DHT22;1687;49.540;8.574;2024-03-23T01:25:56;13.10;70.60
3348;DHT22;1687;49.540;8.574;2024-03-23T01:28:22;13.10;70.50
3348;DHT22;1687;49.540;8.574;2024-03-23T01:30:48;13.20;70.80
3348;DHT22;1687;49.540;8.574;2024-03-23T01:33:15;13.20;70.70
3348;DHT22;1687;49.540;8.574;2024-03-23T01:35:40;13.20;70.90
3348;DHT22;1687;49.540;8.574;2024-03-23T01:38:06;13.30;71.10
3348;DHT22;1687;49.540;8.574;2024-03-23T01:40:32;13.30;71.00
3348;DHT22;1687;49.540;8.574;2024-03-23T01:43:03;13.30;71.20
3348;DHT22;1687;49.540;8.574;2024-03-23T01:45:33;13.30;71.10
3348;DHT22;1687;49.540;8.574;2024-03-23T01:47:59;13.40;71.40
3348;DHT22;1687;49.540;8.574;2024-03-23T01:50:26;13.40;71.50
3348;DHT22;1687;49.540;8.574;2024-03-23T01:52:52;13.50;71.60
3348;DHT22;1687;49.540;8.574;2024-03-23T01:55:19;13.50;71.60
3348;DHT22;1687;49.540;8.574;2024-03-23T01:57:45;13.50;71.70
3348;DHT22;1687;49.540;8.574;2024-03-23T02:00:11;13.60;71.90
3348;DHT22;1687;49.540;8.574;2024-03-23T02:02:45;13.60;71.80
3348;DHT22;1687;49.540;8.574;2024-03-23T02:05:12;13.60;71.80
3348;DHT22;1687;49.540;8.574;2024-03-23T02:07:39;13.70;71.90
3348;DHT22;1687;49.540;8.574;2024-03-23T02:10:07;13.70;71.80
3348;DHT22;1687;49.540;8.574;2024-03-23T02:12:34;13.70;72.00
3348;DHT22;1687;49.540;8.574;2024-03-23T02:15:00;13.70;71.80
3348;DHT22;1687;49.540;8.574;2024-03-23T02:17:25;13.70;71.70
3348;DHT22;1687;49.540;8.574;2024-03-23T02:19:51;13.60;71.70
3348;DHT22;1687;49.540;8.574;2024-03-23T02:22:17;13.60;71.80
3348;DHT22;1687;49.540;8.574;2024-03-23T02:24:42;13.60;72.00
3348;DHT22;1687;49.540;8.574;2024-03-23T02:27:08;13.60;72.00
3348;DHT22;1687;49.540;8.574;2024-03-23T02:29:34;13.60;72.00
3348;DHT22;1687;49.540;8.574;2024-03-23T02:32:00;13.70;72.20
3348;DHT22;1687;49.540;8.574;2024-03-23T02:34:26;13.70;72.20
3348;DHT22;1687;49.540;8.574;2024-03-23T02:36:52;13.80;72.30
3348;DHT22;1687;49.540;8.574;2024-03-23T02:39:18;13.80;72.10
3348;DHT22;1687;49.540;8.574;2024-03-23T02:41:43;13.80;72.10
3348;DHT22;1687;49.540;8.574;2024-03-23T02:44:09;13.90;72.40
3348;DHT22;1687;49.540;8.574;2024-03-23T02:46:39;13.90;72.30
3348;DHT22;1687;49.540;8.574;2024-03-23T02:49:05;13.90;72.30
3348;DHT22;1687;49.540;8.574;2024-03-23T02:51:32;13.90;72.30
3348;DHT22;1687;49.540;8.574;2024-03-23T02:53:57;13.90;72.40
3348;DHT22;1687;49.540;8.574;2024-03-23T02:56:23;13.90;72.20
3348;DHT22;1687;49.540;8.574;2024-03-23T02:58:49;13.90;72.40
3348;DHT22;1687;49.540;8.574;2024-03-23T03:01:15;14.00;73.20
3348;DHT22;1687;49.540;8.574;2024-03-23T03:03:40;14.00;72.40
3348;DHT22;1687;49.540;8.574;2024-03-23T03:06:06;14.00;72.30
3348;DHT22;1687;49.540;8.574;2024-03-23T03:08:32;14.00;72.30
3348;DHT22;1687;49.540;8.574;2024-03-23T03:10:58;13.90;72.30
3348;DHT22;1687;49.540;8.574;2024-03-23T03:13:23;13.90;72.20
3348;DHT22;1687;49.540;8.574;2024-03-23T03:15:49;13.80;72.10
3348;DHT22;1687;49.540;8.574;2024-03-23T03:18:15;13.70;72.20
3348;DHT22;1687;49.540;8.574;2024-03-23T03:20:40;13.70;72.30
3348;DHT22;1687;49.540;8.574;2024-03-23T03:23:07;13.70;72.50
3348;DHT22;1687;49.540;8.574;2024-03-23T03:25:33;13.70;72.50
3348;DHT22;1687;49.540;8.574;2024-03-23T03:27:59;13.70;72.60
3348;DHT22;1687;49.540;8.574;2024-03-23T03:30:25;13.70;72.40
3348;DHT22;1687;49.540;8.574;2024-03-23T03:32:53;13.80;72.60
3348;DHT22;1687;49.540;8.574;2024-03-23T03:35:20;13.80;72.60
3348;DHT22;1687;49.540;8.574;2024-03-23T03:37:46;13.90;72.60
3348;DHT22;1687;49.540;8.574;2024-03-23T03:40:12;14.00;72.60
3348;DHT22;1687;49.540;8.574;2024-03-23T03:42:40;14.00;72.40
3348;DHT22;1687;49.540;8.574;2024-03-23T03:45:06;14.10;72.30
3348;DHT22;1687;49.540;8.574;2024-03-23T03:47:33;14.10;72.00
3348;DHT22;1687;49.540;8.574;2024-03-23T03:49:58;14.10;71.80
3348;DHT22;1687;49.540;8.574;2024-03-23T03:52:24;14.10;71.70
3348;DHT22;1687;49.540;8.574;2024-03-23T03:54:49;14.10;71.60
3348;DHT22;1687;49.540;8.574;2024-03-23T03:57:15;14.10;71.50
3348;DHT22;1687;49.540;8.574;2024-03-23T03:59:41;14.10;71.40
3348;DHT22;1687;49.540;8.574;2024-03-23T04:02:07;14.10;71.30
3348;DHT22;1687;49.540;8.574;2024-03-23T04:04:32;14.10;71.20
3348;DHT22;1687;49.540;8.574;2024-03-23T04:07:00;14.10;71.00
3348;DHT22;1687;49.540;8.574;2024-03-23T04:09:26;14.10;71.00
3348;DHT22;1687;49.540;8.574;2024-03-23T04:11:51;14.10;71.00
3348;DHT22;1687;49.540;8.574;2024-03-23T04:14:17;14.10;70.90
3348;DHT22;1687;49.540;8.574;2024-03-23T04:16:43;14.10;70.70
3348;DHT22;1687;49.540;8.574;2024-03-23T04:19:08;14.10;70.70
3348;DHT22;1687;49.540;8.574;2024-03-23T04:21:35;14.10;70.70
3348;DHT22;1687;49.540;8.574;2024-03-23T04:24:02;14.20;70.60
3348;DHT22;1687;49.540;8.574;2024-03-23T04:26:28;14.10;70.40
3348;DHT22;1687;49.540;8.574;2024-03-23T04:28:54;14.10;70.40
3348;DHT22;1687;49.540;8.574;2024-03-23T04:31:20;14.10;70.40
3348;DHT22;1687;49.540;8.574;2024-03-23T04:33:45;14.10;70.30
3348;DHT22;1687;49.540;8.574;2024-03-23T04:36:11;14.10;70.30
3348;DHT22;1687;49.540;8.574;2024-03-23T04:38:37;14.10;70.30
3348;DHT22;1687;49.540;8.574;2024-03-23T04:41:02;14.10;70.90
3348;DHT22;1687;49.540;8.574;2024-03-23T04:43:28;14.10;70.10
3348;DHT22;1687;49.540;8.574;2024-03-23T04:45:55;14.10;70.30
3348;DHT22;1687;49.540;8.574;2024-03-23T04:48:21;14.10;70.00
3348;DHT22;1687;49.540;8.574;2024-03-23T04:50:48;14.00;69.90
3348;DHT22;1687;49.540;8.574;2024-03-23T04:53:15;14.00;69.90
3348;DHT22;1687;49.540;8.574;2024-03-23T04:55:41;13.90;69.90
3348;DHT22;1687;49.540;8.574;2024-03-23T04:58:08;13.90;69.90
3348;DHT22;1687;49.540;8.574;2024-03-23T05:00:33;13.80;69.80
3348;DHT22;1687;49.540;8.574;2024-03-23T05:02:59;13.80;70.10
3348;DHT22;1687;49.540;8.574;2024-03-23T05:05:25;13.80;70.10
3348;DHT22;1687;49.540;8.574;2024-03-23T05:07:50;13.70;70.00
3348;DHT22;1687;49.540;8.574;2024-03-23T05:10:16;13.70;70.00
3348;DHT22;1687;49.540;8.574;2024-03-23T05:12:42;13.70;70.00
3348;DHT22;1687;49.540;8.574;2024-03-23T05:15:08;13.60;69.80
3348;DHT22;1687;49.540;8.574;2024-03-23T05:17:34;13.50;69.80
3348;DHT22;1687;49.540;8.574;2024-03-23T05:20:00;13.40;69.70
3348;DHT22;1687;49.540;8.574;2024-03-23T05:22:26;13.30;69.40
3348;DHT22;1687;49.540;8.574;2024-03-23T05:24:52;13.00;69.10
3348;DHT22;1687;49.540;8.574;2024-03-23T05:27:18;12.60;69.10
3348;DHT22;1687;49.540;8.574;2024-03-23T05:29:44;12.30;68.70
3348;DHT22;1687;49.540;8.574;2024-03-23T05:32:10;11.80;68.80
3348;DHT22;1687;49.540;8.574;2024-03-23T05:34:36;11.60;69.50
3348;DHT22;1687;49.540;8.574;2024-03-23T05:37:01;11.50;69.60
3348;DHT22;1687;49.540;8.574;2024-03-23T05:39:27;11.30;69.50
3348;DHT22;1687;49.540;8.574;2024-03-23T05:41:53;11.10;69.80
3348;DHT22;1687;49.540;8.574;2024-03-23T05:44:19;11.00;70.10
3348;DHT22;1687;49.540;8.574;2024-03-23T05:46:44;10.90;69.90
3348;DHT22;1687;49.540;8.574;2024-03-23T05:49:13;10.70;70.00
3348;DHT22;1687;49.540;8.574;2024-03-23T05:51:40;10.70;70.50
3348;DHT22;1687;49.540;8.574;2024-03-23T05:54:06;10.70;70.60
3348;DHT22;1687;49.540;8.574;2024-03-23T05:56:31;10.60;70.30
3348;DHT22;1687;49.540;8.574;2024-03-23T05:58:57;10.50;70.50
3348;DHT22;1687;49.540;8.574;2024-03-23T06:01:23;10.50;70.70
3348;DHT22;1687;49.540;8.574;2024-03-23T06:03:49;10.50;71.10
3348;DHT22;1687;49.540;8.574;2024-03-23T06:06:14;10.60;71.20
3348;DHT22;1687;49.540;8.574;2024-03-23T06:08:40;10.60;70.90
3348;DHT22;1687;49.540;8.574;2024-03-23T06:11:06;10.50;70.60
3348;DHT22;1687;49.540;8.574;2024-03-23T06:13:32;10.40;70.70
3348;DHT22;1687;49.540;8.574;2024-03-23T06:15:59;10.40;71.10
3348;DHT22;1687;49.540;8.574;2024-03-23T06:18:25;10.40;71.10
3348;DHT22;1687;49.540;8.574;2024-03-23T06:20:51;10.50;71.50
3348;DHT22;1687;49.540;8.574;2024-03-23T06:23:17;10.50;70.90
3348;DHT22;1687;49.540;8.574;2024-03-23T06:25:45;10.40;71.00
3348;DHT22;1687;49.540;8.574;2024-03-23T06:28:11;10.50;71.20
3348;DHT22;1687;49.540;8.574;2024-03-23T06:30:37;10.50;71.10
3348;DHT22;1687;49.540;8.574;2024-03-23T06:33:03;10.50;71.30
3348;DHT22;1687;49.540;8.574;2024-03-23T06:35:28;10.50;71.40
3348;DHT22;1687;49.540;8.574;2024-03-23T06:37:54;10.50;71.20
3348;DHT22;1687;49.540;8.574;2024-03-23T06:40:20;10.50;71.00
3348;DHT22;1687;49.540;8.574;2024-03-23T06:42:45;10.40;71.00
3348;DHT22;1687;49.540;8.574;2024-03-23T06:45:11;10.30;71.10
3348;DHT22;1687;49.540;8.574;2024-03-23T06:47:37;10.40;71.70
3348;DHT22;1687;49.540;8.574;2024-03-23T06:50:03;10.40;71.40
3348;DHT22;1687;49.540;8.574;2024-03-23T06:52:30;10.40;71.40
3348;DHT22;1687;49.540;8.574;2024-03-23T06:54:56;10.50;71.20
3348;DHT22;1687;49.540;8.574;2024-03-23T06:57:22;10.40;71.20
3348;DHT22;1687;49.540;8.574;2024-03-23T06:59:48;10.40;71.10
3348;DHT22;1687;49.540;8.574;2024-03-23T07:02:14;10.40;71.40
3348;DHT22;1687;49.540;8.574;2024-03-23T07:04:41;10.40;71.10
3348;DHT22;1687;49.540;8.574;2024-03-23T07:07:06;10.40;71.10
3348;DHT22;1687;49.540;8.574;2024-03-23T07:09:32;10.50;71.40
3348;DHT22;1687;49.540;8.574;2024-03-23T07:11:58;10.50;71.10
3348;DHT22;1687;49.540;8.574;2024-03-23T07:14:24;10.50;71.00
3348;DHT22;1687;49.540;8.574;2024-03-23T07:16:50;10.40;70.80
3348;DHT22;1687;49.540;8.574;2024-03-23T07:19:16;10.30;71.10
3348;DHT22;1687;49.540;8.574;2024-03-23T07:21:43;10.30;71.00
3348;DHT22;1687;49.540;8.574;2024-03-23T07:24:09;10.20;70.70
3348;DHT22;1687;49.540;8.574;2024-03-23T07:26:35;10.20;71.00
3348;DHT22;1687;49.540;8.574;2024-03-23T07:29:01;10.20;70.60
3348;DHT22;1687;49.540;8.574;2024-03-23T07:31:27;10.20;70.70
3348;DHT22;1687;49.540;8.574;2024-03-23T07:33:53;10.20;70.70
3348;DHT22;1687;49.540;8.574;2024-03-23T07:36:18;10.10;70.40
3348;DHT22;1687;49.540;8.574;2024-03-23T07:38:44;10.20;70.70
3348;DHT22;1687;49.540;8.574;2024-03-23T07:41:12;10.20;70.60
3348;DHT22;1687;49.540;8.574;2024-03-23T07:43:42;10.20;70.60
3348;DHT22;1687;49.540;8.574;2024-03-23T07:46:09;10.20;70.30
3348;DHT22;1687;49.540;8.574;2024-03-23T07:48:35;10.20;70.10
3348;DHT22;1687;49.540;8.574;2024-03-23T07:51:11;10.20;70.30
3348;DHT22;1687;49.540;8.574;2024-03-23T07:53:43;10.20;70.30
3348;DHT22;1687;49.540;8.574;2024-03-23T07:56:10;10.20;70.00
3348;DHT22;1687;49.540;8.574;2024-03-23T07:58:35;10.20;70.80
3348;DHT22;1687;49.540;8.574;2024-03-23T08:01:10;10.20;70.10
3348;DHT22;1687;49.540;8.574;2024-03-23T08:03:43;10.20;70.10
3348;DHT22;1687;49.540;8.574;2024-03-23T08:06:16;10.30;70.60
3348;DHT22;1687;49.540;8.574;2024-03-23T08:08:45;10.40;70.20
3348;DHT22;1687;49.540;8.574;2024-03-23T08:11:12;10.50;70.60
3348;DHT22;1687;49.540;8.574;2024-03-23T08:13:42;10.60;70.20
3348;DHT22;1687;49.540;8.574;2024-03-23T08:16:10;10.60;70.10
3348;DHT22;1687;49.540;8.574;2024-03-23T08:18:35;10.70;70.10
3348;DHT22;1687;49.540;8.574;2024-03-23T08:21:05;10.70;69.70
3348;DHT22;1687;49.540;8.574;2024-03-23T08:23:33;10.70;69.70
3348;DHT22;1687;49.540;8.574;2024-03-23T08:26:03;10.70;69.80
3348;DHT22;1687;49.540;8.574;2024-03-23T08:28:36;10.80;69.90
3348;DHT22;1687;49.540;8.574;2024-03-23T08:31:08;10.70;69.30
3348;DHT22;1687;49.540;8.574;2024-03-23T08:33:34;10.80;69.70
3348;DHT22;1687;49.540;8.574;2024-03-23T08:36:02;10.80;69.50
3348;DHT22;1687;49.540;8.574;2024-03-23T08:38:29;11.00;69.80
3348;DHT22;1687;49.540;8.574;2024-03-23T08:40:59;11.10;69.30
3348;DHT22;1687;49.540;8.574;2024-03-23T08:43:29;11.20;69.40
3348;DHT22;1687;49.540;8.574;2024-03-23T08:46:09;11.20;69.00
3348;DHT22;1687;49.540;8.574;2024-03-23T08:48:38;11.20;68.70
3348;DHT22;1687;49.540;8.574;2024-03-23T08:51:05;11.20;68.80
3348;DHT22;1687;49.540;8.574;2024-03-23T08:53:33;11.40;69.00
3348;DHT22;1687;49.540;8.574;2024-03-23T08:55:59;11.40;68.40
3348;DHT22;1687;49.540;8.574;2024-03-23T08:58:27;11.40;68.10
3348;DHT22;1687;49.540;8.574;2024-03-23T09:00:54;11.40;68.00
3348;DHT22;1687;49.540;8.574;2024-03-23T09:03:26;11.30;67.80
3348;DHT22;1687;49.540;8.574;2024-03-23T09:05:52;11.30;67.70
3348;DHT22;1687;49.540;8.574;2024-03-23T09:08:18;11.20;67.70
3348;DHT22;1687;49.540;8.574;2024-03-23T09:10:44;11.20;67.50
3348;DHT22;1687;49.540;8.574;2024-03-23T09:13:10;11.30;67.40
3348;DHT22;1687;49.540;8.574;2024-03-23T09:15:37;11.40;67.50
3348;DHT22;1687;49.540;8.574;2024-03-23T09:18:10;11.50;67.50
3348;DHT22;1687;49.540;8.574;2024-03-23T09:20:35;11.50;67.00
3348;DHT22;1687;49.540;8.574;2024-03-23T09:23:01;11.50;67.10
3348;DHT22;1687;49.540;8.574;2024-03-23T09:25:27;11.60;67.00
3348;DHT22;1687;49.540;8.574;2024-03-23T09:27:52;11.70;67.00
3348;DHT22;1687;49.540;8.574;2024-03-23T09:30:18;11.80;67.20
3348;DHT22;1687;49.540;8.574;2024-03-23T09:32:45;11.80;66.70
3348;DHT22;1687;49.540;8.574;2024-03-23T09:35:11;11.90;66.80
3348;DHT22;1687;49.540;8.574;2024-03-23T09:37:38;11.90;66.30
3348;DHT22;1687;49.540;8.574;2024-03-23T09:40:08;11.90;66.30
3348;DHT22;1687;49.540;8.574;2024-03-23T09:42:35;11.90;65.80
3348;DHT22;1687;49.540;8.574;2024-03-23T09:45:00;11.90;65.80
3348;DHT22;1687;49.540;8.574;2024-03-23T09:47:26;11.90;65.90
3348;DHT22;1687;49.540;8.574;2024-03-23T09:49:52;11.90;65.40
3348;DHT22;1687;49.540;8.574;2024-03-23T09:52:19;11.90;65.40
3348;DHT22;1687;49.540;8.574;2024-03-23T09:54:45;11.90;65.40
3348;DHT22;1687;49.540;8.574;2024-03-23T09:57:10;12.00;65.30
3348;DHT22;1687;49.540;8.574;2024-03-23T09:59:36;12.00;64.80
3348;DHT22;1687;49.540;8.574;2024-03-23T10:02:02;12.00;64.90
3348;DHT22;1687;49.540;8.574;2024-03-23T10:04:41;12.00;65.60
3348;DHT22;1687;49.540;8.574;2024-03-23T10:07:15;12.10;64.80
3348;DHT22;1687;49.540;8.574;2024-03-23T10:09:44;12.20;64.80
3348;DHT22;1687;49.540;8.574;2024-03-23T10:12:14;12.20;64.50
3348;DHT22;1687;49.540;8.574;2024-03-23T10:14:41;12.30;64.40
3348;DHT22;1687;49.540;8.574;2024-03-23T10:17:18;12.30;64.10
3348;DHT22;1687;49.540;8.574;2024-03-23T10:19:52;12.20;63.60
3348;DHT22;1687;49.540;8.574;2024-03-23T10:22:23;12.30;63.70
3348;DHT22;1687;49.540;8.574;2024-03-23T10:24:51;12.30;63.40
3348;DHT22;1687;49.540;8.574;2024-03-23T10:27:19;12.30;63.10
3348;DHT22;1687;49.540;8.574;2024-03-23T10:29:46;12.30;62.80
3348;DHT22;1687;49.540;8.574;2024-03-23T10:32:17;12.40;62.90
3348;DHT22;1687;49.540;8.574;2024-03-23T10:34:45;12.40;62.60
3348;DHT22;1687;49.540;8.574;2024-03-23T10:37:11;12.40;62.20
3348;DHT22;1687;49.540;8.574;2024-03-23T10:39:39;12.50;62.10
3348;DHT22;1687;49.540;8.574;2024-03-23T10:42:07;12.50;61.70
3348;DHT22;1687;49.540;8.574;2024-03-23T10:44:35;12.50;61.50
3348;DHT22;1687;49.540;8.574;2024-03-23T10:47:02;12.40;60.80
3348;DHT22;1687;49.540;8.574;2024-03-23T10:49:29;12.30;60.60
3348;DHT22;1687;49.540;8.574;2024-03-23T10:52:02;12.30;60.70
3348;DHT22;1687;49.540;8.574;2024-03-23T10:54:31;12.30;60.40
3348;DHT22;1687;49.540;8.574;2024-03-23T10:57:10;12.30;60.10
3348;DHT22;1687;49.540;8.574;2024-03-23T10:59:44;12.30;59.70
3348;DHT22;1687;49.540;8.574;2024-03-23T11:02:21;12.40;60.10
3348;DHT22;1687;49.540;8.574;2024-03-23T11:04:47;12.40;59.70
3348;DHT22;1687;49.540;8.574;2024-03-23T11:07:33;12.50;59.50
3348;DHT22;1687;49.540;8.574;2024-03-23T11:09:59;12.50;59.40
3348;DHT22;1687;49.540;8.574;2024-03-23T11:12:30;12.60;59.20
3348;DHT22;1687;49.540;8.574;2024-03-23T11:15:04;12.60;59.00
3348;DHT22;1687;49.540;8.574;2024-03-23T11:17:31;12.70;58.80
3348;DHT22;1687;49.540;8.574;2024-03-23T11:20:00;12.70;58.70
3348;DHT22;1687;49.540;8.574;2024-03-23T11:22:45;12.70;58.80
3348;DHT22;1687;49.540;8.574;2024-03-23T11:25:13;12.70;58.50
3348;DHT22;1687;49.540;8.574;2024-03-23T11:27:39;12.70;58.20
3348;DHT22;1687;49.540;8.574;2024-03-23T11:30:15;12.50;57.70
3348;DHT22;1687;49.540;8.574;2024-03-23T11:32:43;12.10;56.90
3348;DHT22;1687;49.540;8.574;2024-03-23T11:35:09;11.60;57.00
3348;DHT22;1687;49.540;8.574;2024-03-23T11:37:36;11.20;57.00
3348;DHT22;1687;49.540;8.574;2024-03-23T11:40:19;11.00;57.60
3348;DHT22;1687;49.540;8.574;2024-03-23T11:42:45;10.80;57.60
3348;DHT22;1687;49.540;8.574;2024-03-23T11:45:11;10.70;57.80
3348;DHT22;1687;49.540;8.574;2024-03-23T11:47:37;10.50;57.60
3348;DHT22;1687;49.540;8.574;2024-03-23T11:50:03;10.40;58.10
3348;DHT22;1687;49.540;8.574;2024-03-23T11:52:29;10.20;58.10
3348;DHT22;1687;49.540;8.574;2024-03-23T11:55:05;10.10;58.40
3348;DHT22;1687;49.540;8.574;2024-03-23T11:57:33;10.00;58.20
3348;DHT22;1687;49.540;8.574;2024-03-23T11:59:59;9.80;59.50
3348;DHT22;1687;49.540;8.574;2024-03-23T12:02:25;9.80;60.00
3348;DHT22;1687;49.540;8.574;2024-03-23T12:04:50;9.80;60.30
3348;DHT22;1687;49.540;8.574;2024-03-23T12:07:18;10.00;59.90
3348;DHT22;1687;49.540;8.574;2024-03-23T12:09:45;10.00;59.80
3348;DHT22;1687;49.540;8.574;2024-03-23T12:12:18;10.10;60.30
3348;DHT22;1687;49.540;8.574;2024-03-23T12:14:45;10.40;61.10
3348;DHT22;1687;49.540;8.574;2024-03-23T12:17:13;10.60;61.40
3348;DHT22;1687;49.540;8.574;2024-03-23T12:19:40;10.80;61.40
3348;DHT22;1687;49.540;8.574;2024-03-23T12:22:07;10.90;61.50
3348;DHT22;1687;49.540;8.574;2024-03-23T12:24:34;11.00;61.80
3348;DHT22;1687;49.540;8.574;2024-03-23T12:27:04;11.20;62.20
3348;DHT22;1687;49.540;8.574;2024-03-23T12:29:31;11.30;62.80
3348;DHT22;1687;49.540;8.574;2024-03-23T12:32:01;11.30;62.10
3348;DHT22;1687;49.540;8.574;2024-03-23T12:34:28;11.40;62.60
3348;DHT22;1687;49.540;8.574;2024-03-23T12:36:55;11.40;62.40
3348;DHT22;1687;49.540;8.574;2024-03-23T12:39:21;11.40;62.40
3348;DHT22;1687;49.540;8.574;2024-03-23T12:41:47;11.50;63.50
3348;DHT22;1687;49.540;8.574;2024-03-23T12:44:13;11.40;62.50
3348;DHT22;1687;49.540;8.574;2024-03-23T12:46:41;11.20;61.70
3348;DHT22;1687;49.540;8.574;2024-03-23T12:49:07;10.90;61.70
3348;DHT22;1687;49.540;8.574;2024-03-23T12:51:33;10.80;62.40
3348;DHT22;1687;49.540;8.574;2024-03-23T12:53:59;10.70;62.70
3348;DHT22;1687;49.540;8.574;2024-03-23T12:56:24;10.80;63.10
3348;DHT22;1687;49.540;8.574;2024-03-23T12:58:50;10.80;63.10
3348;DHT22;1687;49.540;8.574;2024-03-23T13:01:20;10.80;63.40
3348;DHT22;1687;49.540;8.574;2024-03-23T13:03:49;10.80;63.40
3348;DHT22;1687;49.540;8.574;2024-03-23T13:06:18;10.70;63.10
3348;DHT22;1687;49.540;8.574;2024-03-23T13:08:47;10.60;63.20
3348;DHT22;1687;49.540;8.574;2024-03-23T13:11:15;10.40;62.70
3348;DHT22;1687;49.540;8.574;2024-03-23T13:13:41;10.30;62.80
3348;DHT22;1687;49.540;8.574;2024-03-23T13:16:07;10.00;62.20
3348;DHT22;1687;49.540;8.574;2024-03-23T13:18:33;9.80;63.70
3348;DHT22;1687;49.540;8.574;2024-03-23T13:20:59;9.60;63.70
3348;DHT22;1687;49.540;8.574;2024-03-23T13:23:25;9.50;64.00
3348;DHT22;1687;49.540;8.574;2024-03-23T13:25:54;9.50;64.00
3348;DHT22;1687;49.540;8.574;2024-03-23T13:28:21;9.60;64.80
3348;DHT22;1687;49.540;8.574;2024-03-23T13:30:52;9.70;64.90
3348;DHT22;1687;49.540;8.574;2024-03-23T13:33:21;9.80;65.00
3348;DHT22;1687;49.540;8.574;2024-03-23T13:35:54;9.80;65.20
3348;DHT22;1687;49.540;8.574;2024-03-23T13:38:22;9.90;65.10
3348;DHT22;1687;49.540;8.574;2024-03-23T13:40:57;10.00;64.40
3348;DHT22;1687;49.540;8.574;2024-03-23T13:43:25;10.00;64.30
3348;DHT22;1687;49.540;8.574;2024-03-23T13:45:55;10.00;64.00
3348;DHT22;1687;49.540;8.574;2024-03-23T13:48:26;9.90;65.00
3348;DHT22;1687;49.540;8.574;2024-03-23T13:51:01;9.90;65.10
3348;DHT22;1687;49.540;8.574;2024-03-23T13:53:28;9.90;65.20
3348;DHT22;1687;49.540;8.574;2024-03-23T13:55:55;9.90;65.20
3348;DHT22;1687;49.540;8.574;2024-03-23T13:58:21;10.00;64.70
3348;DHT22;1687;49.540;8.574;2024-03-23T14:00:49;10.20;64.90
3348;DHT22;1687;49.540;8.574;2024-03-23T14:03:14;10.40;65.10
3348;DHT22;1687;49.540;8.574;2024-03-23T14:05:41;10.70;65.30
3348;DHT22;1687;49.540;8.574;2024-03-23T14:08:08;10.90;65.10
3348;DHT22;1687;49.540;8.574;2024-03-23T14:10:34;11.10;65.10
3348;DHT22;1687;49.540;8.574;2024-03-23T14:13:01;11.30;65.40
3348;DHT22;1687;49.540;8.574;2024-03-23T14:15:29;11.40;65.20
3348;DHT22;1687;49.540;8.574;2024-03-23T14:17:56;11.40;65.20
3348;DHT22;1687;49.540;8.574;2024-03-23T14:20:22;11.50;65.30
3348;DHT22;1687;49.540;8.574;2024-03-23T14:22:49;11.70;65.40
3348;DHT22;1687;49.540;8.574;2024-03-23T14:25:15;11.70;65.10
3348;DHT22;1687;49.540;8.574;2024-03-23T14:27:43;11.70;65.10
3348;DHT22;1687;49.540;8.574;2024-03-23T14:30:10;11.70;65.10
3348;DHT22;1687;49.540;8.574;2024-03-23T14:32:36;11.70;64.70
3348;DHT22;1687;49.540;8.574;2024-03-23T14:35:03;11.60;64.80
3348;DHT22;1687;49.540;8.574;2024-03-23T14:37:29;11.50;64.70
3348;DHT22;1687;49.540;8.574;2024-03-23T14:39:55;11.40;64.40
3348;DHT22;1687;49.540;8.574;2024-03-23T14:42:22;11.30;64.10
3348;DHT22;1687;49.540;8.574;2024-03-23T14:44:49;11.00;63.30
3348;DHT22;1687;49.540;8.574;2024-03-23T14:47:15;11.30;64.90
3348;DHT22;1687;49.540;8.574;2024-03-23T14:49:43;12.10;66.40
3348;DHT22;1687;49.540;8.574;2024-03-23T14:52:18;12.70;66.10
3348;DHT22;1687;49.540;8.574;2024-03-23T14:54:45;13.20;66.10
3348;DHT22;1687;49.540;8.574;2024-03-23T14:57:11;13.40;65.80
3348;DHT22;1687;49.540;8.574;2024-03-23T14:59:37;13.70;66.20
3348;DHT22;1687;49.540;8.574;2024-03-23T15:02:09;14.10;66.60
3348;DHT22;1687;49.540;8.574;2024-03-23T15:04:34;14.40;66.40
3348;DHT22;1687;49.540;8.574;2024-03-23T15:07:01;14.70;66.30
3348;DHT22;1687;49.540;8.574;2024-03-23T15:09:27;15.20;67.00
3348;DHT22;1687;49.540;8.574;2024-03-23T15:11:52;16.20;67.70
3348;DHT22;1687;49.540;8.574;2024-03-23T15:14:20;17.60;69.00
3348;DHT22;1687;49.540;8.574;2024-03-23T15:16:46;18.20;67.00
3348;DHT22;1687;49.540;8.574;2024-03-23T15:19:14;17.90;65.10
3348;DHT22;1687;49.540;8.574;2024-03-23T15:21:40;17.10;64.10
3348;DHT22;1687;49.540;8.574;2024-03-23T15:24:07;16.20;63.10
3348;DHT22;1687;49.540;8.574;2024-03-23T15:26:36;15.50;62.50
3348;DHT22;1687;49.540;8.574;2024-03-23T15:29:02;15.30;62.60
3348;DHT22;1687;49.540;8.574;2024-03-23T15:31:28;14.60;61.40
3348;DHT22;1687;49.540;8.574;2024-03-23T15:33:56;13.80;60.70
3348;DHT22;1687;49.540;8.574;2024-03-23T15:36:22;13.30;61.30
3348;DHT22;1687;49.540;8.574;2024-03-23T15:38:48;13.00;61.20
3348;DHT22;1687;49.540;8.574;2024-03-23T15:41:14;12.70;60.50
3348;DHT22;1687;49.540;8.574;2024-03-23T15:43:40;12.50;60.90
3348;DHT22;1687;49.540;8.574;2024-03-23T15:46:07;12.20;60.00
3348;DHT22;1687;49.540;8.574;2024-03-23T15:48:33;12.20;60.90
3348;DHT22;1687;49.540;8.574;2024-03-23T15:51:02;12.10;60.60
3348;DHT22;1687;49.540;8.574;2024-03-23T15:53:29;12.00;60.10
3348;DHT22;1687;49.540;8.574;2024-03-23T15:56:03;11.90;60.00
3348;DHT22;1687;49.540;8.574;2024-03-23T15:58:30;11.80;59.80
3348;DHT22;1687;49.540;8.574;2024-03-23T16:01:07;11.50;59.10
3348;DHT22;1687;49.540;8.574;2024-03-23T16:03:37;11.20;58.70
3348;DHT22;1687;49.540;8.574;2024-03-23T16:06:06;11.60;60.10
3348;DHT22;1687;49.540;8.574;2024-03-23T16:08:33;11.90;60.00
3348;DHT22;1687;49.540;8.574;2024-03-23T16:11:06;12.40;60.30
3348;DHT22;1687;49.540;8.574;2024-03-23T16:13:33;12.90;60.20
3348;DHT22;1687;49.540;8.574;2024-03-23T16:16:00;12.90;60.00
3348;DHT22;1687;49.540;8.574;2024-03-23T16:18:33;12.60;59.70
3348;DHT22;1687;49.540;8.574;2024-03-23T16:21:01;11.90;58.50
3348;DHT22;1687;49.540;8.574;2024-03-23T16:23:28;11.40;59.10
3348;DHT22;1687;49.540;8.574;2024-03-23T16:25:55;11.10;59.60
3348;DHT22;1687;49.540;8.574;2024-03-23T16:28:29;10.80;59.30
3348;DHT22;1687;49.540;8.574;2024-03-23T16:33:33;10.30;59.40
3348;DHT22;1687;49.540;8.574;2024-03-23T16:36:07;10.20;59.80
3348;DHT22;1687;49.540;8.574;2024-03-23T16:38:41;10.10;59.90
3348;DHT22;1687;49.540;8.574;2024-03-23T16:41:13;10.00;59.90
3348;DHT22;1687;49.540;8.574;2024-03-23T16:43:41;10.00;60.50
3348;DHT22;1687;49.540;8.574;2024-03-23T16:46:09;9.90;61.20
3348;DHT22;1687;49.540;8.574;2024-03-23T16:48:40;9.90;61.50
3348;DHT22;1687;49.540;8.574;2024-03-23T16:51:08;9.80;61.60
3348;DHT22;1687;49.540;8.574;2024-03-23T16:53:35;9.80;61.80
3348;DHT22;1687;49.540;8.574;2024-03-23T16:56:02;9.80;61.70
3348;DHT22;1687;49.540;8.574;2024-03-23T16:58:30;9.70;61.50